Terminal Aerodrome Forecast
Issued by NWS

Home | Current Version | Previous Version | Text Only | Print | Product List | Glossary On
Versions: 1 2 3 4 5 6 7 8 9 10 11 12 13 14 15 16 17 18
000
FTUS43 KGRB 300330 AAA
TAFAUW
TAF AMD
KAUW 300330Z 3004/3024 35009KT 6SM -RA BR BKN012 OVC030
     FM300500 36008KT 4SM -RA BR OVC008
     FM301000 36010G16KT 6SM -SHRA SCT008 OVC014
     FM301400 01011G16KT P6SM OVC015
     FM301800 36010G17KT P6SM SCT025 BKN100=

USA.gov is the U.S. government's official web portal to all federal, state and local government web resources and services.